HBKEY LJLJ-LOWW
Flight info
| Callsign | HBKEY |
|---|---|
| Flight time | 1h 10m |
| Altitude | 9000 |
| Route | LAPNA LAPNA2W |
| Aircraft | DA42/L-SBDGRY/S |
Departure
| Time | 2026-05-06 19:45 |
|---|---|
| Airport | Ljubljana Jože Pučnik Airport (LJLJ) |
Arrival
| Time | 2026-05-06 20:55 |
|---|---|
| Airport | Vienna International Airport (LOWW) |
| Time | Latitude | Longitude | Altitude | Speed | Heading |
|---|---|---|---|---|---|
| 2026-05-06 19:42 | 46.23237 | 14.44066 | 1281 ft | 0 kts | 126° |
| 2026-05-06 19:44 | 46.23191 | 14.44158 | 1278 ft | 41 kts | 126° |
| 2026-05-06 19:44 | 46.22900 | 14.44728 | 1286 ft | 92 kts | 125° |
| 2026-05-06 19:44 | 46.22682 | 14.45605 | 1658 ft | 92 kts | 98° |
| 2026-05-06 19:45 | 46.22787 | 14.46503 | 2063 ft | 93 kts | 69° |
| 2026-05-06 19:45 | 46.23021 | 14.47397 | 2426 ft | 98 kts | 70° |
| 2026-05-06 19:45 | 46.23277 | 14.48322 | 2784 ft | 103 kts | 73° |
| 2026-05-06 19:45 | 46.23558 | 14.49306 | 3146 ft | 109 kts | 71° |
| 2026-05-06 19:46 | 46.23856 | 14.50322 | 3548 ft | 111 kts | 71° |
| 2026-05-06 19:46 | 46.24166 | 14.51367 | 3923 ft | 115 kts | 71° |
| 2026-05-06 19:46 | 46.24494 | 14.52470 | 4253 ft | 123 kts | 71° |
| 2026-05-06 19:46 | 46.24835 | 14.53614 | 4666 ft | 124 kts | 69° |
| 2026-05-06 19:47 | 46.25178 | 14.54756 | 5107 ft | 125 kts | 70° |
| 2026-05-06 19:47 | 46.25517 | 14.55939 | 5503 ft | 130 kts | 73° |
| 2026-05-06 19:47 | 46.25864 | 14.57118 | 5909 ft | 127 kts | 71° |
| 2026-05-06 19:47 | 46.26223 | 14.58284 | 6316 ft | 130 kts | 69° |
| 2026-05-06 19:48 | 46.28628 | 14.66105 | 9002 ft | 131 kts | 69° |
| 2026-05-06 19:48 | 46.29034 | 14.67683 | 9088 ft | 164 kts | 74° |
| 2026-05-06 19:48 | 46.29483 | 14.69331 | 9077 ft | 186 kts | 71° |
| 2026-05-06 19:48 | 46.30008 | 14.71145 | 9077 ft | 204 kts | 69° |
| 2026-05-06 19:49 | 46.30580 | 14.73048 | 9070 ft | 209 kts | 69° |
| 2026-05-06 19:49 | 46.31169 | 14.75020 | 9057 ft | 214 kts | 66° |
| 2026-05-06 19:49 | 46.38922 | 15.01377 | 8978 ft | 222 kts | 70° |
| 2026-05-06 19:49 | 46.48262 | 15.33539 | 9003 ft | 221 kts | 70° |
| 2026-05-06 19:50 | 46.51046 | 15.43306 | 9043 ft | 218 kts | 70° |
| 2026-05-06 19:50 | 46.53353 | 15.51235 | 9042 ft | 220 kts | 64° |
| 2026-05-06 19:50 | 46.58560 | 15.54959 | 9035 ft | 216 kts | 24° |
| 2026-05-06 19:50 | 46.58645 | 15.55021 | 9041 ft | 216 kts | 24° |
| 2026-05-06 19:51 | 46.62497 | 15.57461 | 9039 ft | 212 kts | 19° |
| 2026-05-06 19:52 | 46.73094 | 15.63947 | 9032 ft | 214 kts | 20° |
| 2026-05-06 19:52 | 46.74795 | 15.65019 | 9026 ft | 214 kts | 20° |
| 2026-05-06 19:52 | 46.76164 | 15.65862 | 9019 ft | 214 kts | 19° |
| 2026-05-06 19:52 | 46.77537 | 15.66700 | 9024 ft | 214 kts | 19° |
| 2026-05-06 19:53 | 46.78912 | 15.67544 | 9021 ft | 215 kts | 19° |
| 2026-05-06 19:53 | 46.80290 | 15.68395 | 9018 ft | 215 kts | 19° |
| 2026-05-06 19:53 | 46.81668 | 15.69241 | 9017 ft | 215 kts | 19° |
| 2026-05-06 19:53 | 46.83042 | 15.70086 | 9018 ft | 214 kts | 19° |
| 2026-05-06 19:54 | 46.84416 | 15.70931 | 9017 ft | 214 kts | 19° |
| 2026-05-06 19:54 | 46.85769 | 15.71765 | 9018 ft | 214 kts | 19° |
| 2026-05-06 19:54 | 46.87140 | 15.72609 | 9017 ft | 213 kts | 19° |
| 2026-05-06 19:54 | 46.88511 | 15.73449 | 9017 ft | 214 kts | 19° |
| 2026-05-06 19:55 | 46.89883 | 15.74293 | 9017 ft | 213 kts | 19° |
| 2026-05-06 19:55 | 46.91255 | 15.75132 | 9015 ft | 214 kts | 19° |
| 2026-05-06 19:55 | 46.92630 | 15.75981 | 9019 ft | 215 kts | 19° |
| 2026-05-06 19:55 | 46.94009 | 15.76838 | 9015 ft | 215 kts | 19° |
| 2026-05-06 19:56 | 46.95390 | 15.77690 | 9017 ft | 215 kts | 19° |
| 2026-05-06 19:56 | 46.96766 | 15.78537 | 9016 ft | 214 kts | 19° |
| 2026-05-06 19:56 | 46.98122 | 15.79376 | 9010 ft | 215 kts | 19° |
| 2026-05-06 19:56 | 46.99498 | 15.80233 | 9017 ft | 215 kts | 19° |
| 2026-05-06 19:57 | 47.00879 | 15.81091 | 9010 ft | 216 kts | 19° |
| 2026-05-06 19:57 | 47.02262 | 15.81944 | 9009 ft | 216 kts | 19° |
| 2026-05-06 19:57 | 47.03647 | 15.82803 | 9009 ft | 216 kts | 20° |
| 2026-05-06 19:57 | 47.05029 | 15.83668 | 9003 ft | 215 kts | 20° |
| 2026-05-06 19:58 | 47.06408 | 15.84523 | 9005 ft | 216 kts | 19° |
| 2026-05-06 19:58 | 47.07789 | 15.85383 | 9002 ft | 215 kts | 19° |
| 2026-05-06 19:58 | 47.09170 | 15.86243 | 9011 ft | 216 kts | 19° |
| 2026-05-06 19:58 | 47.10556 | 15.87105 | 9007 ft | 216 kts | 19° |
| 2026-05-06 19:59 | 47.11924 | 15.87957 | 9004 ft | 217 kts | 20° |
| 2026-05-06 19:59 | 47.13313 | 15.88824 | 8994 ft | 217 kts | 20° |
| 2026-05-06 19:59 | 47.14700 | 15.89684 | 8998 ft | 217 kts | 20° |
| 2026-05-06 19:59 | 47.16090 | 15.90552 | 8999 ft | 217 kts | 20° |
| 2026-05-06 20:00 | 47.17473 | 15.91419 | 8997 ft | 215 kts | 19° |
| 2026-05-06 20:00 | 47.18846 | 15.92278 | 9000 ft | 214 kts | 19° |
| 2026-05-06 20:00 | 47.20217 | 15.93133 | 8991 ft | 214 kts | 19° |
| 2026-05-06 20:00 | 47.21584 | 15.93985 | 8993 ft | 214 kts | 20° |
| 2026-05-06 20:01 | 47.22936 | 15.94832 | 8993 ft | 214 kts | 20° |
| 2026-05-06 20:01 | 47.24300 | 15.95688 | 8992 ft | 213 kts | 20° |
| 2026-05-06 20:01 | 47.25660 | 15.96540 | 9001 ft | 212 kts | 19° |
| 2026-05-06 20:01 | 47.27021 | 15.97393 | 9000 ft | 212 kts | 20° |
| 2026-05-06 20:02 | 47.28381 | 15.98245 | 8993 ft | 213 kts | 20° |
| 2026-05-06 20:02 | 47.29741 | 15.99098 | 9000 ft | 213 kts | 19° |
| 2026-05-06 20:02 | 47.31102 | 15.99954 | 8990 ft | 213 kts | 20° |
| 2026-05-06 20:02 | 47.32473 | 16.00813 | 8992 ft | 215 kts | 20° |
| 2026-05-06 20:03 | 47.33850 | 16.01680 | 8993 ft | 215 kts | 20° |
| 2026-05-06 20:03 | 47.35224 | 16.02539 | 8977 ft | 213 kts | 20° |
| 2026-05-06 20:03 | 47.36569 | 16.03389 | 8983 ft | 214 kts | 20° |
| 2026-05-06 20:03 | 47.37975 | 16.04117 | 8981 ft | 214 kts | 14° |
| 2026-05-06 20:04 | 47.39385 | 16.04821 | 8980 ft | 214 kts | 15° |
| 2026-05-06 20:04 | 47.40798 | 16.05531 | 8984 ft | 215 kts | 14° |
| 2026-05-06 20:04 | 47.42220 | 16.06235 | 8984 ft | 216 kts | 14° |
| 2026-05-06 20:04 | 47.43642 | 16.06938 | 8972 ft | 215 kts | 14° |
| 2026-05-06 20:05 | 47.45066 | 16.07642 | 8975 ft | 217 kts | 14° |
| 2026-05-06 20:05 | 47.46489 | 16.08349 | 8973 ft | 215 kts | 14° |
| 2026-05-06 20:05 | 47.47913 | 16.09055 | 8973 ft | 216 kts | 15° |
| 2026-05-06 20:05 | 47.49340 | 16.09762 | 8972 ft | 217 kts | 14° |
| 2026-05-06 20:06 | 47.50749 | 16.10463 | 8966 ft | 217 kts | 13° |
| 2026-05-06 20:06 | 47.52169 | 16.11165 | 8960 ft | 214 kts | 14° |
| 2026-05-06 20:06 | 47.53578 | 16.11865 | 8959 ft | 213 kts | 14° |
| 2026-05-06 20:06 | 47.54977 | 16.12565 | 8956 ft | 212 kts | 13° |
| 2026-05-06 20:07 | 47.56375 | 16.13260 | 8957 ft | 211 kts | 13° |
| 2026-05-06 20:07 | 47.57764 | 16.13952 | 8952 ft | 210 kts | 12° |
| 2026-05-06 20:07 | 47.59143 | 16.14636 | 8960 ft | 209 kts | 14° |
| 2026-05-06 20:07 | 47.60531 | 16.15329 | 8949 ft | 212 kts | 14° |
| 2026-05-06 20:08 | 47.61932 | 16.16024 | 8946 ft | 212 kts | 13° |
| 2026-05-06 20:08 | 47.63339 | 16.16723 | 8939 ft | 214 kts | 14° |
| 2026-05-06 20:08 | 47.64746 | 16.17431 | 8935 ft | 213 kts | 13° |
| 2026-05-06 20:08 | 47.66125 | 16.18119 | 8941 ft | 212 kts | 14° |
| 2026-05-06 20:09 | 47.67526 | 16.18827 | 8924 ft | 213 kts | 13° |
| 2026-05-06 20:09 | 47.68926 | 16.19523 | 8922 ft | 212 kts | 13° |
| 2026-05-06 20:09 | 47.70319 | 16.20218 | 8922 ft | 211 kts | 14° |
| 2026-05-06 20:09 | 47.71709 | 16.20915 | 8922 ft | 210 kts | 13° |
| 2026-05-06 20:10 | 47.73096 | 16.21608 | 8926 ft | 210 kts | 14° |
| 2026-05-06 20:10 | 47.74483 | 16.22303 | 8926 ft | 210 kts | 14° |
| 2026-05-06 20:10 | 47.75852 | 16.23086 | 8911 ft | 213 kts | 25° |
| 2026-05-06 20:10 | 47.77033 | 16.24430 | 8913 ft | 215 kts | 40° |
| 2026-05-06 20:11 | 47.78051 | 16.26047 | 8912 ft | 214 kts | 61° |
| 2026-05-06 20:11 | 47.78421 | 16.28094 | 8909 ft | 205 kts | 97° |
| 2026-05-06 20:11 | 47.78024 | 16.30010 | 8913 ft | 187 kts | 134° |
| 2026-05-06 20:11 | 47.77074 | 16.31116 | 8907 ft | 166 kts | 170° |
| 2026-05-06 20:12 | 47.75990 | 16.31146 | 8918 ft | 153 kts | 196° |
| 2026-05-06 20:12 | 47.74998 | 16.30653 | 8920 ft | 149 kts | 211° |
| 2026-05-06 20:12 | 47.74108 | 16.29866 | 8934 ft | 151 kts | 210° |
| 2026-05-06 20:12 | 47.73133 | 16.29252 | 8933 ft | 154 kts | 206° |
| 2026-05-06 20:13 | 47.72122 | 16.28708 | 8938 ft | 156 kts | 204° |
| 2026-05-06 20:13 | 47.71092 | 16.28184 | 8941 ft | 157 kts | 203° |
| 2026-05-06 20:13 | 47.70053 | 16.27674 | 8937 ft | 156 kts | 203° |
| 2026-05-06 20:13 | 47.69058 | 16.27109 | 8933 ft | 154 kts | 212° |
| 2026-05-06 20:14 | 47.68275 | 16.26053 | 8934 ft | 154 kts | 233° |
| 2026-05-06 20:14 | 47.67865 | 16.24586 | 8933 ft | 157 kts | 255° |
| 2026-05-06 20:14 | 47.67934 | 16.22941 | 8933 ft | 166 kts | 278° |
| 2026-05-06 20:14 | 47.68543 | 16.21424 | 8933 ft | 181 kts | 306° |
| 2026-05-06 20:15 | 47.69676 | 16.20479 | 8929 ft | 197 kts | 338° |
| 2026-05-06 20:15 | 47.71080 | 16.20570 | 8928 ft | 209 kts | 10° |
| 2026-05-06 20:15 | 47.72466 | 16.21243 | 8929 ft | 210 kts | 15° |
| 2026-05-06 20:15 | 47.73843 | 16.21973 | 8929 ft | 210 kts | 15° |
| 2026-05-06 20:16 | 47.75227 | 16.22683 | 8930 ft | 210 kts | 14° |
| 2026-05-06 20:16 | 47.76612 | 16.23379 | 8921 ft | 211 kts | 15° |
| 2026-05-06 20:16 | 47.77825 | 16.24560 | 8913 ft | 215 kts | 48° |
| 2026-05-06 20:16 | 47.78466 | 16.26520 | 8912 ft | 209 kts | 85° |
| 2026-05-06 20:17 | 47.78324 | 16.28572 | 8913 ft | 194 kts | 121° |
| 2026-05-06 20:17 | 47.77515 | 16.30022 | 8913 ft | 174 kts | 158° |
| 2026-05-06 20:17 | 47.76427 | 16.30597 | 8916 ft | 162 kts | 179° |
| 2026-05-06 20:17 | 47.75346 | 16.30505 | 8913 ft | 152 kts | 200° |
| 2026-05-06 20:18 | 47.74370 | 16.29944 | 8931 ft | 150 kts | 206° |
| 2026-05-06 20:18 | 47.73384 | 16.29371 | 8933 ft | 154 kts | 205° |
| 2026-05-06 20:18 | 47.72383 | 16.28842 | 8936 ft | 156 kts | 204° |
| 2026-05-06 20:18 | 47.71350 | 16.28315 | 8936 ft | 158 kts | 203° |
| 2026-05-06 20:19 | 47.70307 | 16.27795 | 8931 ft | 158 kts | 203° |
| 2026-05-06 20:19 | 47.69274 | 16.27267 | 8928 ft | 155 kts | 207° |
| 2026-05-06 20:19 | 47.68422 | 16.26329 | 8933 ft | 154 kts | 229° |
| 2026-05-06 20:19 | 47.67917 | 16.24936 | 8929 ft | 156 kts | 250° |
| 2026-05-06 20:20 | 47.67875 | 16.23307 | 8927 ft | 163 kts | 273° |
| 2026-05-06 20:20 | 47.68356 | 16.21735 | 8930 ft | 176 kts | 299° |
| 2026-05-06 20:20 | 47.69380 | 16.20618 | 8924 ft | 193 kts | 330° |
| 2026-05-06 20:20 | 47.70754 | 16.20451 | 8921 ft | 208 kts | 5° |
| 2026-05-06 20:21 | 47.72126 | 16.21065 | 8928 ft | 209 kts | 14° |
| 2026-05-06 20:21 | 47.73500 | 16.21792 | 8928 ft | 210 kts | 15° |
| 2026-05-06 20:21 | 47.74880 | 16.22507 | 8929 ft | 210 kts | 14° |
| 2026-05-06 20:21 | 47.76264 | 16.23201 | 8918 ft | 210 kts | 14° |
| 2026-05-06 20:22 | 47.77570 | 16.24185 | 8912 ft | 215 kts | 39° |
| 2026-05-06 20:22 | 47.78378 | 16.26012 | 8913 ft | 212 kts | 76° |
| 2026-05-06 20:22 | 47.78422 | 16.28111 | 8909 ft | 199 kts | 112° |
| 2026-05-06 20:22 | 47.77744 | 16.29768 | 8910 ft | 180 kts | 149° |
| 2026-05-06 20:23 | 47.76678 | 16.30524 | 8920 ft | 164 kts | 175° |
| 2026-05-06 20:23 | 47.75581 | 16.30582 | 8921 ft | 153 kts | 195° |
| 2026-05-06 20:23 | 47.74602 | 16.30087 | 8918 ft | 150 kts | 207° |
| 2026-05-06 20:23 | 47.73622 | 16.29505 | 8935 ft | 153 kts | 205° |
| 2026-05-06 20:24 | 47.72619 | 16.28961 | 8938 ft | 154 kts | 204° |
| 2026-05-06 20:24 | 47.71598 | 16.28437 | 8940 ft | 156 kts | 204° |
| 2026-05-06 20:24 | 47.70562 | 16.27917 | 8939 ft | 157 kts | 203° |
| 2026-05-06 20:24 | 47.69526 | 16.27408 | 8937 ft | 157 kts | 204° |
| 2026-05-06 20:25 | 47.68605 | 16.26611 | 8939 ft | 154 kts | 224° |
| 2026-05-06 20:25 | 47.68109 | 16.25218 | 8933 ft | 158 kts | 256° |
| 2026-05-06 20:25 | 47.68102 | 16.23612 | 8932 ft | 160 kts | 275° |
| 2026-05-06 20:25 | 47.68596 | 16.22087 | 8930 ft | 173 kts | 300° |
| 2026-05-06 20:26 | 47.69607 | 16.21008 | 8924 ft | 190 kts | 330° |
| 2026-05-06 20:26 | 47.70935 | 16.20846 | 8923 ft | 203 kts | 5° |
| 2026-05-06 20:26 | 47.72304 | 16.21404 | 8935 ft | 205 kts | 12° |
| 2026-05-06 20:26 | 47.73672 | 16.22041 | 8936 ft | 207 kts | 12° |
| 2026-05-06 20:27 | 47.75050 | 16.22675 | 8936 ft | 208 kts | 12° |
| 2026-05-06 20:27 | 47.76359 | 16.23625 | 8920 ft | 213 kts | 33° |
| 2026-05-06 20:27 | 47.77376 | 16.25212 | 8915 ft | 213 kts | 57° |
| 2026-05-06 20:27 | 47.78130 | 16.27104 | 8916 ft | 213 kts | 61° |
| 2026-05-06 20:28 | 47.78877 | 16.29003 | 8917 ft | 213 kts | 62° |
| 2026-05-06 20:28 | 47.79624 | 16.30909 | 8916 ft | 214 kts | 62° |
| 2026-05-06 20:28 | 47.80357 | 16.32797 | 8917 ft | 214 kts | 62° |
| 2026-05-06 20:28 | 47.81104 | 16.34709 | 8917 ft | 214 kts | 61° |
| 2026-05-06 20:29 | 47.81852 | 16.36619 | 8920 ft | 214 kts | 61° |
| 2026-05-06 20:29 | 47.82600 | 16.38532 | 8919 ft | 214 kts | 61° |
| 2026-05-06 20:29 | 47.83349 | 16.40446 | 8919 ft | 214 kts | 61° |
| 2026-05-06 20:29 | 47.84096 | 16.42364 | 8927 ft | 214 kts | 62° |
| 2026-05-06 20:30 | 47.84838 | 16.44267 | 9008 ft | 212 kts | 61° |
| 2026-05-06 20:30 | 47.86327 | 16.48086 | 9009 ft | 214 kts | 61° |
| 2026-05-06 20:30 | 47.87067 | 16.49986 | 9010 ft | 213 kts | 62° |
| 2026-05-06 20:31 | 47.87796 | 16.51862 | 9011 ft | 214 kts | 62° |
| 2026-05-06 20:31 | 47.88538 | 16.53776 | 9004 ft | 213 kts | 61° |
| 2026-05-06 20:31 | 47.89282 | 16.55687 | 9002 ft | 213 kts | 61° |
| 2026-05-06 20:31 | 47.90021 | 16.57586 | 9011 ft | 212 kts | 61° |
| 2026-05-06 20:32 | 47.90757 | 16.59483 | 9013 ft | 211 kts | 61° |
| 2026-05-06 20:32 | 47.91491 | 16.61380 | 9015 ft | 211 kts | 62° |
| 2026-05-06 20:32 | 47.92225 | 16.63275 | 9015 ft | 211 kts | 61° |
| 2026-05-06 20:32 | 47.92958 | 16.65169 | 9015 ft | 211 kts | 61° |
| 2026-05-06 20:33 | 47.93692 | 16.67068 | 9019 ft | 212 kts | 61° |
| 2026-05-06 20:33 | 47.94425 | 16.68973 | 9018 ft | 212 kts | 61° |
| 2026-05-06 20:33 | 47.95164 | 16.70869 | 9016 ft | 211 kts | 60° |
| 2026-05-06 20:33 | 47.95887 | 16.72737 | 9016 ft | 211 kts | 62° |
| 2026-05-06 20:34 | 47.96603 | 16.74612 | 9015 ft | 211 kts | 62° |
| 2026-05-06 20:34 | 47.97337 | 16.76522 | 9016 ft | 210 kts | 61° |
| 2026-05-06 20:34 | 47.98069 | 16.78414 | 9016 ft | 210 kts | 62° |
| 2026-05-06 20:34 | 47.98984 | 16.80112 | 9015 ft | 211 kts | 40° |
| 2026-05-06 20:35 | 48.00236 | 16.81213 | 9012 ft | 208 kts | 16° |
| 2026-05-06 20:35 | 48.01629 | 16.81582 | 9012 ft | 201 kts | 354° |
| 2026-05-06 20:35 | 48.02971 | 16.81242 | 9011 ft | 193 kts | 333° |
| 2026-05-06 20:35 | 48.04161 | 16.80391 | 9012 ft | 189 kts | 325° |
| 2026-05-06 20:36 | 48.05331 | 16.79499 | 9015 ft | 188 kts | 325° |
| 2026-05-06 20:36 | 48.06481 | 16.78613 | 9013 ft | 188 kts | 325° |
| 2026-05-06 20:36 | 48.07644 | 16.77714 | 9024 ft | 188 kts | 325° |
| 2026-05-06 20:36 | 48.08835 | 16.76793 | 8819 ft | 198 kts | 325° |
| 2026-05-06 20:37 | 48.10077 | 16.75838 | 8593 ft | 203 kts | 326° |
| 2026-05-06 20:37 | 48.11342 | 16.74867 | 8364 ft | 206 kts | 326° |
| 2026-05-06 20:37 | 48.12618 | 16.73884 | 8138 ft | 207 kts | 326° |
| 2026-05-06 20:37 | 48.13901 | 16.72894 | 7914 ft | 208 kts | 325° |
| 2026-05-06 20:38 | 48.15185 | 16.71902 | 7692 ft | 208 kts | 325° |
| 2026-05-06 20:38 | 48.16471 | 16.70908 | 7459 ft | 208 kts | 325° |
| 2026-05-06 20:38 | 48.17757 | 16.69914 | 7250 ft | 208 kts | 325° |
| 2026-05-06 20:38 | 48.19043 | 16.68921 | 7041 ft | 207 kts | 325° |
| 2026-05-06 20:39 | 48.20281 | 16.67966 | 7026 ft | 199 kts | 325° |
| 2026-05-06 20:39 | 48.21491 | 16.67029 | 7024 ft | 193 kts | 324° |
| 2026-05-06 20:39 | 48.22725 | 16.66234 | 7014 ft | 196 kts | 337° |
| 2026-05-06 20:39 | 48.24068 | 16.65670 | 6793 ft | 204 kts | 337° |
| 2026-05-06 20:40 | 48.25456 | 16.65087 | 6552 ft | 209 kts | 337° |
| 2026-05-06 20:40 | 48.26867 | 16.64497 | 6313 ft | 212 kts | 337° |
| 2026-05-06 20:40 | 48.28289 | 16.63901 | 6067 ft | 213 kts | 338° |
| 2026-05-06 20:40 | 48.29694 | 16.63313 | 6014 ft | 205 kts | 337° |
| 2026-05-06 20:41 | 48.31045 | 16.62762 | 6008 ft | 200 kts | 341° |
| 2026-05-06 20:41 | 48.32427 | 16.62946 | 5925 ft | 210 kts | 18° |
| 2026-05-06 20:41 | 48.33612 | 16.64244 | 5698 ft | 217 kts | 52° |
| 2026-05-06 20:41 | 48.34229 | 16.66293 | 5417 ft | 217 kts | 81° |
| 2026-05-06 20:42 | 48.34522 | 16.68508 | 5144 ft | 216 kts | 85° |
| 2026-05-06 20:42 | 48.34786 | 16.70734 | 4850 ft | 217 kts | 85° |
| 2026-05-06 20:42 | 48.35056 | 16.72972 | 4561 ft | 218 kts | 85° |
| 2026-05-06 20:42 | 48.35139 | 16.75205 | 4244 ft | 210 kts | 108° |
| 2026-05-06 20:43 | 48.34521 | 16.77055 | 3939 ft | 191 kts | 142° |
| 2026-05-06 20:43 | 48.33451 | 16.78075 | 3637 ft | 178 kts | 166° |
| 2026-05-06 20:43 | 48.32286 | 16.78147 | 3342 ft | 165 kts | 200° |
| 2026-05-06 20:43 | 48.31412 | 16.77139 | 3057 ft | 165 kts | 232° |
| 2026-05-06 20:44 | 48.31096 | 16.75507 | 3014 ft | 161 kts | 253° |
| 2026-05-06 20:44 | 48.30962 | 16.73861 | 3012 ft | 157 kts | 256° |
| 2026-05-06 20:44 | 48.31232 | 16.72224 | 3005 ft | 174 kts | 292° |
| 2026-05-06 20:44 | 48.32154 | 16.70944 | 3000 ft | 185 kts | 314° |
| 2026-05-06 20:45 | 48.33201 | 16.69831 | 3000 ft | 184 kts | 315° |
| 2026-05-06 20:45 | 48.34252 | 16.68735 | 2999 ft | 184 kts | 315° |
| 2026-05-06 20:45 | 48.35303 | 16.67640 | 2997 ft | 184 kts | 315° |
| 2026-05-06 20:45 | 48.36355 | 16.66548 | 2997 ft | 183 kts | 315° |
| 2026-05-06 20:46 | 48.37404 | 16.65457 | 2995 ft | 184 kts | 315° |
| 2026-05-06 20:46 | 48.38455 | 16.64366 | 2992 ft | 183 kts | 315° |
| 2026-05-06 20:46 | 48.39307 | 16.63064 | 2988 ft | 167 kts | 290° |
| 2026-05-06 20:46 | 48.39839 | 16.61581 | 2990 ft | 162 kts | 285° |
| 2026-05-06 20:47 | 48.40325 | 16.60077 | 2983 ft | 153 kts | 275° |
| 2026-05-06 20:47 | 48.40360 | 16.58589 | 3000 ft | 140 kts | 256° |
| 2026-05-06 20:47 | 48.40063 | 16.57233 | 2996 ft | 138 kts | 230° |
| 2026-05-06 20:47 | 48.39221 | 16.56562 | 3002 ft | 142 kts | 197° |
| 2026-05-06 20:48 | 48.38254 | 16.56224 | 3004 ft | 144 kts | 195° |
| 2026-05-06 20:48 | 48.37272 | 16.55896 | 3001 ft | 145 kts | 195° |
| 2026-05-06 20:48 | 48.36286 | 16.55568 | 3006 ft | 145 kts | 195° |
| 2026-05-06 20:48 | 48.35306 | 16.55252 | 2994 ft | 141 kts | 195° |
| 2026-05-06 20:49 | 48.34402 | 16.54967 | 2995 ft | 129 kts | 195° |
| 2026-05-06 20:49 | 48.33555 | 16.54713 | 2996 ft | 120 kts | 195° |
| 2026-05-06 20:49 | 48.32752 | 16.54476 | 2998 ft | 115 kts | 195° |
| 2026-05-06 20:49 | 48.31972 | 16.54261 | 2999 ft | 113 kts | 195° |
| 2026-05-06 20:50 | 48.31204 | 16.54069 | 3002 ft | 111 kts | 195° |
| 2026-05-06 20:50 | 48.30433 | 16.53866 | 3007 ft | 114 kts | 195° |
| 2026-05-06 20:50 | 48.29636 | 16.53656 | 3010 ft | 118 kts | 195° |
| 2026-05-06 20:50 | 48.28815 | 16.53442 | 3011 ft | 121 kts | 194° |
| 2026-05-06 20:51 | 48.27993 | 16.53229 | 3012 ft | 122 kts | 195° |
| 2026-05-06 20:51 | 48.27143 | 16.52993 | 3015 ft | 127 kts | 195° |
| 2026-05-06 20:51 | 48.26251 | 16.52752 | 3017 ft | 133 kts | 195° |
| 2026-05-06 20:51 | 48.25324 | 16.52549 | 3019 ft | 138 kts | 189° |
| 2026-05-06 20:52 | 48.24350 | 16.52693 | 3021 ft | 143 kts | 178° |
| 2026-05-06 20:52 | 48.23362 | 16.53022 | 2922 ft | 149 kts | 175° |
| 2026-05-06 20:52 | 48.22333 | 16.53417 | 2725 ft | 155 kts | 174° |
| 2026-05-06 20:52 | 48.21287 | 16.53860 | 2521 ft | 157 kts | 172° |
| 2026-05-06 20:53 | 48.20234 | 16.54313 | 2325 ft | 157 kts | 172° |
| 2026-05-06 20:53 | 48.19199 | 16.54749 | 2108 ft | 156 kts | 171° |
| 2026-05-06 20:53 | 48.18155 | 16.55198 | 1902 ft | 157 kts | 171° |
| 2026-05-06 20:53 | 48.17102 | 16.55640 | 1700 ft | 158 kts | 171° |
| 2026-05-06 20:54 | 48.16034 | 16.56099 | 1471 ft | 161 kts | 168° |
| 2026-05-06 20:54 | 48.14959 | 16.56582 | 1259 ft | 161 kts | 164° |
| 2026-05-06 20:54 | 48.13892 | 16.57041 | 1071 ft | 146 kts | 163° |
| 2026-05-06 20:54 | 48.13096 | 16.57350 | 909 ft | 100 kts | 171° |
| 2026-05-06 20:55 | 48.12499 | 16.57615 | 752 ft | 78 kts | 167° |
| 2026-05-06 20:55 | 48.11955 | 16.57832 | 636 ft | 83 kts | 168° |
| 2026-05-06 20:55 | 48.11449 | 16.58046 | 602 ft | 62 kts | 169° |
| 2026-05-06 20:55 | 48.11175 | 16.58150 | 603 ft | 24 kts | 172° |
| 2026-05-06 20:56 | 48.11100 | 16.58128 | 602 ft | 5 kts | 215° |
| 2026-05-06 20:56 | 48.11050 | 16.58007 | 602 ft | 18 kts | 235° |
| 2026-05-06 20:56 | 48.11085 | 16.57939 | 602 ft | 8 kts | 293° |
| 2026-05-06 20:56 | 48.11086 | 16.57935 | 601 ft | 0 kts | 292° |